createdAt,value
2022-08-01T04:04:04.588Z,6.1
2022-08-01T04:06:19.075Z,4.2
2022-08-01T04:08:33.439Z,3.1
2022-08-01T04:10:51.004Z,2.9
2022-08-01T04:13:06.396Z,6.1
2022-08-01T04:15:20.956Z,1.8
2022-08-01T04:17:35.328Z,2.7
2022-08-01T04:19:49.873Z,3.1
2022-08-01T04:22:04.487Z,2.5
2022-08-01T04:24:18.709Z,3.3
2022-08-01T04:26:33.139Z,3.9
2022-08-01T04:28:47.747Z,2.4
2022-08-01T04:31:03.098Z,3.6
2022-08-01T04:33:19.981Z,11.8
2022-08-01T04:36:03.160Z,4.1
2022-08-01T04:37:51.920Z,3.5
2022-08-01T04:40:06.289Z,5.2
2022-08-01T04:42:25.034Z,7.7
2022-08-01T04:44:39.075Z,5.8
2022-08-01T04:46:54.628Z,5.2
2022-08-01T04:49:09.080Z,4.7
2022-08-01T04:51:23.463Z,5.2
2022-08-01T04:53:38.854Z,5.6
2022-08-01T04:55:53.237Z,4.9
2022-08-01T04:58:07.623Z,6.5
2022-08-01T05:00:22.086Z,6.5
2022-08-01T05:02:36.532Z,6.7
2022-08-01T05:04:50.961Z,6.3
2022-08-01T05:07:05.316Z,6.6
2022-08-01T05:09:20.702Z,5.7
2022-08-01T05:11:36.162Z,6.4
2022-08-01T05:13:50.589Z,7
2022-08-01T05:16:05.910Z,6.6
2022-08-01T05:18:24.250Z,7.4
2022-08-01T05:20:37.689Z,6.7
2022-08-01T05:22:52.043Z,7.3
2022-08-01T05:25:06.411Z,6.7
2022-08-01T05:27:21.761Z,10.7
2022-08-01T05:29:36.143Z,6.7
2022-08-01T05:31:51.511Z,7.9
2022-08-01T05:34:05.903Z,8.1
2022-08-01T05:36:22.257Z,8.2
2022-08-01T05:38:36.646Z,7
2022-08-01T05:40:51.019Z,10.8
2022-08-01T05:43:05.380Z,8.9
2022-08-01T05:45:19.776Z,8.6
2022-08-01T05:47:34.135Z,6
2022-08-01T05:49:48.526Z,9.6
2022-08-01T05:52:03.507Z,5.8
2022-08-01T05:54:17.321Z,11.9
2022-08-01T05:56:32.639Z,13.7
2022-08-01T05:58:48.074Z,9.4
2022-08-01T06:01:02.427Z,12.1
2022-08-01T06:03:16.919Z,12.3
2022-08-01T06:05:31.241Z,8.3
2022-08-01T06:07:45.671Z,11.7
2022-08-01T06:10:00.085Z,11.6
2022-08-01T06:12:14.496Z,12.9
2022-08-01T06:14:28.920Z,12.9
2022-08-01T06:16:43.264Z,12.4
2022-08-01T06:18:58.682Z,12.5
2022-08-01T06:21:13.081Z,10
2022-08-01T06:23:31.392Z,9.6
2022-08-01T06:25:44.854Z,10.4
2022-08-01T06:27:59.290Z,14
2022-08-01T06:30:13.700Z,14.7
2022-08-01T06:32:28.129Z,14.4
2022-08-01T06:34:42.453Z,14.2
2022-08-01T06:36:56.826Z,13.4
2022-08-01T06:39:11.203Z,11.4
2022-08-01T06:41:25.576Z,16.299999
2022-08-01T06:43:39.956Z,13.7
2022-08-01T06:45:54.317Z,16.6
2022-08-01T06:48:08.698Z,10.9
2022-08-01T06:50:23.097Z,14
2022-08-01T06:52:37.543Z,11.9
2022-08-01T06:54:51.969Z,11.8
2022-08-01T06:57:06.380Z,13.3
2022-08-01T06:59:20.777Z,11.7
2022-08-01T07:01:36.273Z,13.2
2022-08-01T07:03:54.146Z,14.1
2022-08-01T07:06:08.026Z,14.2
2022-08-01T07:08:23.458Z,14.1
2022-08-01T07:10:37.886Z,14
2022-08-01T07:12:52.299Z,12
2022-08-01T07:15:06.716Z,12.7
2022-08-01T07:17:21.147Z,13.2
2022-08-01T07:19:36.579Z,12.6
2022-08-01T07:21:51.935Z,14.4
2022-08-01T07:24:09.201Z,12.8
2022-08-01T07:26:24.707Z,11.3
2022-08-01T07:28:43.828Z,12.6
2022-08-01T07:30:56.588Z,11.4
2022-08-01T07:33:10.939Z,14.3
2022-08-01T07:35:25.360Z,12.3
2022-08-01T07:37:45.252Z,13.7
2022-08-01T07:39:57.150Z,13.1
2022-08-01T07:42:11.641Z,15
2022-08-01T07:44:28.136Z,14.6
2022-08-01T07:46:42.218Z,12.2
2022-08-01T07:48:56.653Z,12
2022-08-01T07:51:11.063Z,13.2
2022-08-01T07:53:25.422Z,13.6
2022-08-01T07:55:39.855Z,13.2
2022-08-01T07:57:54.202Z,13.3
2022-08-01T08:00:08.574Z,10.1
2022-08-01T08:02:23.050Z,10.7
2022-08-01T08:04:37.489Z,12
2022-08-01T08:06:51.852Z,11.1
2022-08-01T08:09:06.258Z,10.8
2022-08-01T08:11:21.579Z,11.1
2022-08-01T08:13:35.934Z,9
2022-08-01T08:15:50.322Z,14.4
2022-08-01T08:18:04.682Z,11
2022-08-01T08:20:19.061Z,11.6
2022-08-01T08:22:33.434Z,12.4
2022-08-01T08:24:47.796Z,12.3
2022-08-01T08:27:02.184Z,15.9
2022-08-01T08:29:16.562Z,13.2
2022-08-01T08:31:51.038Z,12.4
2022-08-01T08:33:48.294Z,13.9
2022-08-01T08:36:03.640Z,12.3
2022-08-01T08:38:18.192Z,12.1
2022-08-01T08:40:33.517Z,10.3
2022-08-01T08:42:47.877Z,12.3
2022-08-01T08:45:03.211Z,11
2022-08-01T08:47:20.431Z,9.4
2022-08-01T08:49:35.735Z,10.2
2022-08-01T08:51:50.332Z,9.7
2022-08-01T08:54:04.791Z,10.4
2022-08-01T08:56:19.157Z,11.5
2022-08-01T08:58:33.509Z,11.3
2022-08-01T09:00:49.030Z,11.8
2022-08-01T09:03:03.449Z,11.7
2022-08-01T09:05:19.771Z,11.8
2022-08-01T09:07:34.018Z,10.4
2022-08-01T09:09:48.364Z,11.6
2022-08-01T09:12:02.736Z,10.9
2022-08-01T09:14:17.105Z,10.3
2022-08-01T09:16:31.565Z,10.1
2022-08-01T09:18:45.945Z,9.4
2022-08-01T09:21:02.305Z,10.2
2022-08-01T09:23:16.685Z,10.2
2022-08-01T09:25:36.700Z,10.9
2022-08-01T09:27:48.398Z,9.9
2022-08-01T09:30:02.812Z,8.7
2022-08-01T09:32:18.139Z,10.6
2022-08-01T09:34:33.514Z,9.1
2022-08-01T09:36:48.825Z,9.5
2022-08-01T09:39:03.209Z,8.7
2022-08-01T09:41:19.618Z,9.7
2022-08-01T09:43:34.910Z,9.2
2022-08-01T09:45:53.164Z,8.1
2022-08-01T09:48:10.514Z,9.1
2022-08-01T09:50:24.127Z,10.5
2022-08-01T09:52:40.970Z,8.7
2022-08-01T09:54:55.850Z,8.4
2022-08-01T09:57:10.286Z,9.2
2022-08-01T09:59:36.150Z,9.5
2022-08-01T10:01:43.094Z,9.5
2022-08-01T10:03:57.551Z,9.2
2022-08-01T10:06:11.790Z,10.9
2022-08-01T10:08:27.206Z,10
2022-08-01T10:10:43.552Z,10.3
2022-08-01T10:12:58.948Z,8.8
2022-08-01T10:15:14.383Z,9.6
2022-08-01T10:17:50.096Z,10.3
2022-08-01T10:19:46.029Z,10.5
2022-08-01T10:22:01.382Z,9.4
2022-08-01T10:24:18.804Z,8.2
2022-08-01T10:26:32.129Z,6
2022-08-01T10:28:46.469Z,7
2022-08-01T10:31:00.902Z,7.6
2022-08-01T10:33:50.074Z,9.4
2022-08-01T10:35:46.083Z,9.5
2022-08-01T10:37:51.716Z,8.8
2022-08-01T10:40:29.161Z,9
2022-08-01T10:42:23.626Z,8.4
2022-08-01T10:44:39.024Z,6.5
2022-08-01T10:46:53.402Z,7.4
2022-08-01T10:49:08.786Z,6.9
2022-08-01T10:51:27.024Z,6.9
2022-08-01T10:53:42.497Z,7.7
2022-08-01T10:55:56.788Z,6.5
2022-08-01T10:58:13.387Z,7.8
2022-08-01T11:00:28.576Z,8.3
2022-08-01T11:02:45.653Z,8.2
2022-08-01T11:04:59.341Z,7.1
2022-08-01T11:07:13.697Z,8.4
2022-08-01T11:09:35.395Z,7.3
2022-08-01T11:11:46.379Z,7.7
2022-08-01T11:14:02.709Z,6.6
2022-08-01T11:16:21.463Z,5.7
2022-08-01T11:18:37.463Z,7.7
2022-08-01T11:20:50.909Z,6.2
2022-08-01T11:23:07.060Z,5.6
2022-08-01T11:26:03.784Z,6.5
2022-08-01T11:27:40.067Z,6.2
2022-08-01T11:29:55.401Z,6
2022-08-01T11:32:09.787Z,6.2
2022-08-01T11:34:24.142Z,6.1
2022-08-01T11:38:55.929Z,6
2022-08-01T11:41:10.337Z,7.4
2022-08-01T11:43:24.681Z,6
2022-08-01T11:45:40.066Z,5
2022-08-01T11:47:55.406Z,5.7
2022-08-01T11:50:09.764Z,7.7
2022-08-01T11:52:24.147Z,5.6
2022-08-01T11:54:38.499Z,6.5
2022-08-01T11:56:52.862Z,5.4
2022-08-01T11:59:10.977Z,6
2022-08-01T12:01:26.579Z,5.9
2022-08-01T12:03:41.937Z,5.7
2022-08-01T12:05:58.292Z,6.6
2022-08-01T12:08:12.714Z,5.5
2022-08-01T12:10:27.126Z,5
2022-08-01T12:12:41.510Z,4.4
2022-08-01T12:14:55.895Z,4.2
2022-08-01T12:17:10.265Z,5
2022-08-01T12:19:24.644Z,4
2022-08-01T12:21:39.072Z,7.1
2022-08-01T12:23:53.467Z,5.8
2022-08-01T12:26:07.801Z,4.4
2022-08-01T12:28:23.174Z,4.2
2022-08-01T12:30:37.768Z,4.2
2022-08-01T12:32:52.077Z,4.5
2022-08-01T12:35:07.409Z,3.9
2022-08-01T12:37:21.800Z,4
2022-08-01T12:39:36.140Z,4.3
2022-08-01T12:41:52.488Z,4
2022-08-01T12:44:06.830Z,3.7
2022-08-01T12:46:21.217Z,3.9
2022-08-01T12:48:35.585Z,3.6
2022-08-01T12:50:49.926Z,4.6
2022-08-01T12:53:04.294Z,3.4
2022-08-01T12:55:19.638Z,3.6
2022-08-01T12:57:34.016Z,3.6
2022-08-01T12:59:49.401Z,3.6
2022-08-01T13:02:04.143Z,3.4
2022-08-01T13:04:18.060Z,3.2
2022-08-01T13:06:32.440Z,3.3
2022-08-01T13:08:46.797Z,3.2
2022-08-01T13:11:01.150Z,3.6
2022-08-01T13:13:19.947Z,3.6
2022-08-01T13:15:32.859Z,3.2
2022-08-01T13:17:47.205Z,3.6
2022-08-01T13:20:01.536Z,3.7
2022-08-01T13:22:15.943Z,3.9
2022-08-01T13:24:30.464Z,3.5
2022-08-01T13:26:44.678Z,3.6
2022-08-01T13:28:59.055Z,3.7
2022-08-01T13:31:13.400Z,3.5
2022-08-01T13:33:28.787Z,3.6
2022-08-01T13:35:44.150Z,3.4
2022-08-01T13:38:00.633Z,3.3
2022-08-01T13:40:15.007Z,3.2
2022-08-01T13:42:29.396Z,3.3
2022-08-01T13:44:43.777Z,3.1
2022-08-01T13:46:58.208Z,2.9
2022-08-01T13:49:16.252Z,3.7
2022-08-01T13:51:28.869Z,3.1
2022-08-01T13:53:43.348Z,3.5
2022-08-01T13:55:57.699Z,3.9
2022-08-01T13:58:12.127Z,3.2
2022-08-01T14:00:26.460Z,3.4
2022-08-01T14:02:40.994Z,2.7
2022-08-01T14:04:55.319Z,3.3
2022-08-01T14:07:14.311Z,3.1
2022-08-01T14:09:32.428Z,3.7
2022-08-01T14:11:45.828Z,2.4
2022-08-01T14:13:59.704Z,2.3
2022-08-01T14:16:15.407Z,2.6
2022-08-01T14:18:30.434Z,2.2
2022-08-01T14:20:44.801Z,2.9
2022-08-01T14:22:59.160Z,2.7
2022-08-01T14:25:23.918Z,2.4
2022-08-01T14:27:30.840Z,2.7
2022-08-01T14:30:00.110Z,4.2
2022-08-01T14:32:02.569Z,2.1
2022-08-01T14:34:17.005Z,3
2022-08-01T14:36:32.411Z,2.4
2022-08-01T14:38:48.695Z,1.9
2022-08-01T14:41:03.071Z,2.5
2022-08-01T14:43:25.218Z,1.5
2022-08-01T14:45:34.758Z,2.6
2022-08-01T14:47:49.129Z,2.6
2022-08-01T14:50:03.505Z,1.9
2022-08-01T14:52:17.841Z,3.8
2022-08-01T14:54:33.234Z,1.8
2022-08-01T14:56:48.591Z,3.3
2022-08-01T14:59:04.113Z,2.8
2022-08-01T15:01:20.580Z,2
2022-08-01T15:03:35.015Z,1.6
2022-08-01T15:05:49.467Z,2.3
2022-08-01T15:08:03.897Z,1.5
2022-08-01T15:10:18.332Z,1.6
2022-08-01T15:12:49.482Z,2
2022-08-01T15:14:50.253Z,1.6
2022-08-01T15:17:04.569Z,2.5
2022-08-01T15:19:18.917Z,3.5
2022-08-01T15:21:41.482Z,2.1
2022-08-01T15:23:50.653Z,2.2
2022-08-01T15:26:05.041Z,2.1
2022-08-01T15:28:19.552Z,2.4
2022-08-01T15:30:33.859Z,1.8
2022-08-01T15:32:49.301Z,1.7
2022-08-01T15:35:04.644Z,2.1
2022-08-01T15:37:19.079Z,2.9
2022-08-01T15:39:34.423Z,1.6
2022-08-01T15:41:48.856Z,1.6
2022-08-01T15:44:03.541Z,1.8
2022-08-01T15:46:17.910Z,3.2
2022-08-01T15:48:34.196Z,2.4
2022-08-01T15:50:48.757Z,2.1
2022-08-01T15:53:03.171Z,2.3
2022-08-01T15:55:17.546Z,1.8
2022-08-01T15:57:31.905Z,3
2022-08-01T15:59:46.282Z,3.4
2022-08-01T16:02:00.721Z,2.7
2022-08-01T16:04:14.985Z,2.2
2022-08-01T16:06:29.379Z,3
2022-08-01T16:08:43.766Z,1.9
2022-08-01T16:10:58.159Z,2
2022-08-01T16:13:12.517Z,4.3
2022-08-01T16:15:31.395Z,2
2022-08-01T16:17:45.272Z,3.3
2022-08-01T16:19:59.657Z,1.6
2022-08-01T16:22:14.071Z,1.6
2022-08-01T16:24:29.439Z,2
2022-08-01T16:26:43.809Z,2.9
2022-08-01T16:28:58.283Z,2
2022-08-01T16:31:16.309Z,3.7
2022-08-01T16:33:40.168Z,1.7
2022-08-01T16:35:50.019Z,1.9
2022-08-01T16:38:03.742Z,2.2
2022-08-01T16:40:18.183Z,4
2022-08-01T16:42:32.712Z,2.8
2022-08-01T16:44:47.114Z,1.6
2022-08-01T16:47:02.509Z,3.1
2022-08-01T16:49:16.964Z,1.6
2022-08-01T16:51:32.503Z,2.4
2022-08-01T16:53:46.701Z,1.9
2022-08-01T16:56:01.105Z,1.5
2022-08-01T16:58:15.602Z,4.3
2022-08-01T17:00:30.103Z,1.7
2022-08-01T17:02:44.455Z,2.8
2022-08-01T17:04:59.036Z,2.7
2022-08-01T17:07:15.415Z,3.9
2022-08-01T17:09:30.041Z,1.8
2022-08-01T17:11:44.450Z,2.3
2022-08-01T17:13:58.830Z,2.2
2022-08-01T17:16:13.296Z,2.3
2022-08-01T17:18:27.797Z,2.2
2022-08-01T17:20:43.135Z,2.2
2022-08-01T17:22:59.519Z,3.1
2022-08-01T17:25:16.219Z,1.9
2022-08-01T17:27:30.360Z,3.2
2022-08-01T17:29:45.768Z,1.9
2022-08-01T17:32:00.473Z,4.6
2022-08-01T17:34:14.779Z,2.2
2022-08-01T17:36:31.279Z,2.3
2022-08-01T17:38:45.635Z,1.4
2022-08-01T17:40:59.997Z,4
2022-08-01T17:43:14.475Z,1.6
2022-08-01T17:45:29.825Z,1.7
2022-08-01T17:47:50.551Z,1.5
2022-08-01T17:50:02.655Z,3.6
2022-08-01T17:52:17.294Z,2.8
2022-08-01T17:54:31.789Z,1.9
2022-08-01T17:56:47.153Z,4.5
2022-08-01T17:59:01.598Z,2.1
2022-08-01T18:01:16.198Z,2.5
2022-08-01T18:03:31.400Z,3.1
2022-08-01T18:05:48.794Z,2.5
2022-08-01T18:08:05.407Z,4
2022-08-01T18:10:20.886Z,1.9
2022-08-01T18:12:35.362Z,2.3
2022-08-01T18:14:50.767Z,4
2022-08-01T18:17:06.327Z,3.4
2022-08-01T18:19:22.513Z,2
2022-08-01T18:21:42.484Z,4.4
2022-08-01T18:23:54.387Z,1.7
2022-08-01T18:26:08.786Z,2.2
2022-08-01T18:28:30.848Z,3.3
2022-08-01T18:30:40.499Z,3.2
2022-08-01T18:32:54.961Z,3.1
2022-08-01T18:35:10.927Z,3.9
2022-08-01T18:37:29.348Z,3.6
2022-08-01T18:39:46.284Z,4.2
2022-08-01T18:42:01.081Z,6.6
2022-08-01T18:44:16.017Z,6.3
2022-08-01T18:46:30.455Z,4.7
2022-08-01T18:48:44.949Z,5.5
2022-08-01T18:50:59.254Z,2.7
2022-08-01T18:53:13.658Z,3
2022-08-01T18:55:28.040Z,4.8
2022-08-01T18:57:43.506Z,2.3
2022-08-01T18:59:57.940Z,2
2022-08-01T19:02:12.312Z,2.8
2022-08-01T19:04:26.824Z,4.1
2022-08-01T19:06:41.240Z,3
2022-08-01T19:09:01.653Z,3.9
2022-08-01T19:11:13.027Z,4.6
2022-08-01T19:13:27.374Z,2.3
2022-08-01T19:15:41.730Z,2.7
2022-08-01T19:17:56.120Z,2.6
2022-08-01T19:20:11.370Z,3.6
2022-08-01T19:22:25.875Z,4.6
2022-08-01T19:24:40.216Z,2.5
2022-08-01T19:26:55.358Z,4.1
2022-08-01T19:29:09.783Z,3.8
2022-08-01T19:31:24.164Z,3.6
2022-08-01T19:33:38.534Z,2.8
2022-08-01T19:35:52.966Z,3.4
2022-08-01T19:38:07.337Z,3
2022-08-01T19:40:26.437Z,6.1
2022-08-01T19:42:39.015Z,3.1
2022-08-01T19:44:53.392Z,3.1
2022-08-01T19:47:08.007Z,4
2022-08-01T19:49:22.286Z,3.6
2022-08-01T19:51:36.627Z,2.3
2022-08-01T19:53:55.063Z,2.1
2022-08-01T19:56:08.328Z,1.9
2022-08-01T19:58:27.193Z,3.5
2022-08-01T20:00:40.053Z,4.1
2022-08-01T20:02:54.388Z,2.7
2022-08-01T20:05:08.758Z,3.3
2022-08-01T20:07:24.223Z,5.5
2022-08-01T20:09:38.574Z,4.9
2022-08-01T20:11:52.946Z,3.2
2022-08-01T20:14:07.321Z,3.3
2022-08-01T20:16:21.678Z,4.1
2022-08-01T20:18:36.170Z,5.3
2022-08-01T20:20:49.568Z,3.5
2022-08-01T20:23:03.995Z,4.5
2022-08-01T20:25:18.392Z,9.2
2022-08-01T20:27:32.748Z,8.2
2022-08-01T20:29:47.071Z,9.9
2022-08-01T20:32:01.451Z,6.1
2022-08-01T20:34:16.980Z,3.7
2022-08-01T20:36:31.460Z,4.4
2022-08-01T20:38:46.800Z,3.9
2022-08-01T20:41:02.155Z,3.6
2022-08-01T20:43:16.613Z,4.2
2022-08-01T20:45:30.939Z,7.5
2022-08-01T20:47:45.296Z,4.4
2022-08-01T20:50:00.795Z,4
2022-08-01T20:52:15.198Z,4.3
2022-08-01T20:54:29.586Z,2.9
2022-08-01T20:56:44.025Z,2.9
2022-08-01T20:58:59.438Z,5.4
2022-08-01T21:01:13.774Z,3.9
2022-08-01T21:03:28.202Z,4.7
2022-08-01T21:05:55.737Z,3.9
2022-08-01T21:07:59.929Z,4.1
2022-08-01T21:10:14.412Z,5.7
2022-08-01T21:12:28.823Z,3.4
2022-08-01T21:14:43.200Z,3.6
2022-08-01T21:16:57.698Z,5.2
2022-08-01T21:19:21.239Z,4.1
2022-08-01T21:21:29.324Z,4.6
2022-08-01T21:23:43.694Z,3.1
2022-08-01T21:25:58.169Z,5.1
2022-08-01T21:28:12.529Z,3.5
